Time;durP1;ratioP1;P1;durP2;ratioP2;P2;SDS_P1;SDS_P2;PMS_P1;PMS_P2;Temp;Humidity;BMP_temperature;BMP_pressure;BME280_temperature;BME280_humidity;BME280_pressure;Samples;Min_cycle;Max_cycle;Signal;HPM_P1;HPM_P2
2022/11/01 00:02:31;;;;;;;11.30;9.60;;;;;;;;;;105369;1290;22490;-29
2022/11/01 00:05:03;;;;;;;10.50;9.30;;;;;;;;;;105354;1290;22476;-29
2022/11/01 00:07:35;;;;;;;10.60;9.30;;;;;;;;;;105358;1300;23969;-29
2022/11/01 00:10:11;;;;;;;10.10;9.00;;;;;;;;;;105311;1295;22491;-29
2022/11/01 00:12:44;;;;;;;10.70;9.50;;;;;;;;;;105387;1292;22502;-29
2022/11/01 00:15:16;;;;;;;10.10;9.00;;;;;;;;;;105303;1288;22845;-29
2022/11/01 00:17:48;;;;;;;10.80;9.20;;;;;;;;;;105331;1305;22488;-29
2022/11/01 00:20:21;;;;;;;10.70;9.60;;;;;;;;;;105360;1286;24326;-29
2022/11/01 00:22:53;;;;;;;10.30;8.80;;;;;;;;;;105381;1298;25375;-29
2022/11/01 00:25:25;;;;;;;10.70;9.10;;;;;;;;;;105368;1292;22472;-29
2022/11/01 00:27:57;;;;;;;11.80;9.40;;;;;;;;;;105351;1290;22475;-29
2022/11/01 00:30:32;;;;;;;11.00;9.60;;;;;;;;;;105383;1306;22490;-29
2022/11/01 00:33:04;;;;;;;9.70;8.70;;;;;;;;;;105370;1291;22443;-29
2022/11/01 00:35:37;;;;;;;9.40;8.40;;;;;;;;;;105369;1294;22611;-29
2022/11/01 00:38:12;;;;;;;10.40;9.30;;;;;;;;;;105284;1300;22565;-29
2022/11/01 00:40:45;;;;;;;9.80;8.70;;;;;;;;;;105373;1291;22556;-29
2022/11/01 00:43:17;;;;;;;9.60;8.40;;;;;;;;;;105396;1291;23748;-29
2022/11/01 00:45:50;;;;;;;10.00;8.50;;;;;;;;;;105381;1290;22499;-29
2022/11/01 00:48:22;;;;;;;9.70;7.90;;;;;;;;;;105345;1298;22477;-29
2022/11/01 00:50:55;;;;;;;10.30;8.20;;;;;;;;;;105435;1300;23872;-29
2022/11/01 00:53:27;;;;;;;9.40;8.30;;;;;;;;;;105507;1297;25265;-29
2022/11/01 00:56:05;;;;;;;10.00;8.30;;;;;;;;;;105521;1297;22564;-29
2022/11/01 00:58:37;;;;;;;9.50;8.40;;;;;;;;;;105489;1292;22526;-29
2022/11/01 01:01:09;;;;;;;9.90;8.60;;;;;;;;;;105504;1292;22478;-29
2022/11/01 01:03:41;;;;;;;9.50;8.40;;;;;;;;;;105517;1290;23837;-29
2022/11/01 01:06:13;;;;;;;10.00;8.80;;;;;;;;;;105500;1297;22486;-29
2022/11/01 01:08:45;;;;;;;10.20;8.60;;;;;;;;;;105466;1298;23860;-29
2022/11/01 01:11:17;;;;;;;10.50;8.50;;;;;;;;;;105507;1297;22478;-28
2022/11/01 01:13:49;;;;;;;9.20;8.20;;;;;;;;;;105503;1298;22538;-28
2022/11/01 01:16:21;;;;;;;9.00;7.90;;;;;;;;;;105498;1298;23816;-28
2022/11/01 01:18:57;;;;;;;9.60;8.30;;;;;;;;;;105472;1297;22435;-28
2022/11/01 01:21:28;;;;;;;10.40;8.70;;;;;;;;;;105501;1297;22487;-28
2022/11/01 01:24:00;;;;;;;9.20;8.20;;;;;;;;;;105488;1290;22476;-28
2022/11/01 01:26:35;;;;;;;10.20;8.50;;;;;;;;;;105515;1298;22608;-28
2022/11/01 01:29:07;;;;;;;9.30;8.20;;;;;;;;;;105481;1297;22493;-28
2022/11/01 01:31:42;;;;;;;9.50;8.40;;;;;;;;;;105535;1299;22437;-28
2022/11/01 01:34:14;;;;;;;9.60;7.90;;;;;;;;;;105508;1294;22472;-28
2022/11/01 01:36:46;;;;;;;10.10;8.20;;;;;;;;;;105509;1298;22549;-28
2022/11/01 01:39:21;;;;;;;9.30;8.00;;;;;;;;;;105504;1289;22498;-28
2022/11/01 01:41:56;;;;;;;8.80;7.90;;;;;;;;;;105533;1292;23835;-28
2022/11/01 01:45:13;;;;;;;9.20;8.20;;;;;;;;;;105494;1288;22474;-28
2022/11/01 01:47:49;;;;;;;9.20;8.00;;;;;;;;;;105453;1297;22439;-28
2022/11/01 01:50:27;;;;;;;9.10;7.70;;;;;;;;;;105465;1289;22521;-28
2022/11/01 01:53:07;;;;;;;9.70;8.10;;;;;;;;;;105535;1297;22528;-28
2022/11/01 01:55:49;;;;;;;8.90;7.70;;;;;;;;;;105502;1284;22474;-28
2022/11/01 01:58:33;;;;;;;8.40;7.40;;;;;;;;;;105531;1285;22512;-28
2022/11/01 02:01:05;;;;;;;8.90;8.00;;;;;;;;;;105467;1295;22668;-28
2022/11/01 02:03:40;;;;;;;9.40;7.90;;;;;;;;;;105501;1278;25329;-28
2022/11/01 02:06:15;;;;;;;9.20;7.60;;;;;;;;;;105528;1292;22469;-28
2022/11/01 02:08:53;;;;;;;10.40;8.50;;;;;;;;;;105542;1284;22517;-28
2022/11/01 02:11:31;;;;;;;8.90;7.70;;;;;;;;;;105504;1291;22419;-28
2022/11/01 02:14:04;;;;;;;9.10;7.60;;;;;;;;;;105493;1298;25356;-28
2022/11/01 02:16:52;;;;;;;9.80;8.00;;;;;;;;;;105557;1298;22482;-28
2022/11/01 02:20:11;;;;;;;8.20;7.20;;;;;;;;;;105529;1297;22475;-28
2022/11/01 02:23:21;;;;;;;8.00;7.10;;;;;;;;;;105483;1283;22411;-28
2022/11/01 02:26:11;;;;;;;8.60;7.40;;;;;;;;;;105527;1295;25352;-28
2022/11/01 02:28:58;;;;;;;9.20;7.50;;;;;;;;;;105518;1275;23811;-28
2022/11/01 02:32:01;;;;;;;8.30;7.30;;;;;;;;;;105480;1298;25371;-28
2022/11/01 02:34:40;;;;;;;9.50;7.70;;;;;;;;;;105510;1298;22505;-28
2022/11/01 02:37:18;;;;;;;8.50;7.50;;;;;;;;;;105532;1297;22477;-28
2022/11/01 02:39:55;;;;;;;7.90;6.90;;;;;;;;;;105511;1285;22507;-28
2022/11/01 02:42:35;;;;;;;9.10;7.40;;;;;;;;;;105474;1285;22463;-28
2022/11/01 02:45:26;;;;;;;9.00;7.40;;;;;;;;;;105520;1276;22600;-28
2022/11/01 02:48:00;;;;;;;8.80;7.60;;;;;;;;;;105515;1291;22475;-28
2022/11/01 02:50:37;;;;;;;9.00;7.00;;;;;;;;;;105501;1298;22481;-28
2022/11/01 02:53:10;;;;;;;8.50;7.00;;;;;;;;;;105462;1298;22470;-28
2022/11/01 02:55:43;;;;;;;8.40;7.00;;;;;;;;;;105514;1282;22504;-28
2022/11/01 02:58:24;;;;;;;8.10;7.10;;;;;;;;;;105528;1301;22481;-28
2022/11/01 03:00:56;;;;;;;8.20;7.00;;;;;;;;;;105509;1292;22468;-28
2022/11/01 03:03:33;;;;;;;8.00;6.90;;;;;;;;;;105477;1290;22499;-28
2022/11/01 03:06:14;;;;;;;8.60;7.50;;;;;;;;;;105535;1298;22572;-28
2022/11/01 03:08:50;;;;;;;8.70;7.30;;;;;;;;;;105518;1298;22500;-28
2022/11/01 03:11:26;;;;;;;8.10;7.00;;;;;;;;;;105496;1292;23848;-28
2022/11/01 03:14:10;;;;;;;8.30;7.10;;;;;;;;;;105513;1288;22588;-28
2022/11/01 03:16:55;;;;;;;7.80;6.80;;;;;;;;;;105506;1293;22484;-28
2022/11/01 03:19:41;;;;;;;8.30;7.50;;;;;;;;;;105522;1291;25375;-28
2022/11/01 03:22:19;;;;;;;8.40;6.90;;;;;;;;;;105489;1292;22482;-28
2022/11/01 03:25:00;;;;;;;8.80;6.80;;;;;;;;;;105507;1292;22463;-28
2022/11/01 03:27:38;;;;;;;7.90;7.00;;;;;;;;;;105495;1289;22552;-28
2022/11/01 03:30:13;;;;;;;8.00;6.50;;;;;;;;;;105524;1292;23782;-28
2022/11/01 03:32:49;;;;;;;7.80;6.80;;;;;;;;;;105482;1297;22461;-28
2022/11/01 03:35:25;;;;;;;7.90;7.00;;;;;;;;;;105513;1285;22553;-28
2022/11/01 03:38:02;;;;;;;7.30;6.40;;;;;;;;;;105550;1301;22544;-28
2022/11/01 03:40:36;;;;;;;8.10;6.90;;;;;;;;;;105478;1300;22465;-28
2022/11/01 03:43:12;;;;;;;8.10;6.90;;;;;;;;;;105321;1289;236258;-28
2022/11/01 03:45:44;;;;;;;7.70;6.70;;;;;;;;;;105487;1291;22513;-28
2022/11/01 03:48:16;;;;;;;8.20;6.40;;;;;;;;;;105489;1298;24996;-28
2022/11/01 03:50:55;;;;;;;7.80;6.60;;;;;;;;;;105489;1290;22474;-28
2022/11/01 03:53:27;;;;;;;7.90;6.90;;;;;;;;;;105450;1303;26014;-28
2022/11/01 03:55:59;;;;;;;8.20;6.90;;;;;;;;;;105517;1292;25232;-28
2022/11/01 03:58:42;;;;;;;8.80;6.60;;;;;;;;;;105544;1291;22448;-28
2022/11/01 04:01:17;;;;;;;8.00;6.50;;;;;;;;;;105520;1297;22467;-28
2022/11/01 04:03:49;;;;;;;7.70;6.50;;;;;;;;;;105463;1288;22464;-28
2022/11/01 04:06:21;;;;;;;8.10;6.80;;;;;;;;;;105484;1292;22480;-28
2022/11/01 04:08:53;;;;;;;8.20;6.90;;;;;;;;;;105503;1298;22609;-28
2022/11/01 04:11:25;;;;;;;7.90;6.60;;;;;;;;;;105531;1285;25375;-28
2022/11/01 04:20:31;;;;;;;7.70;6.50;;;;;;;;;;105461;1288;22575;-28
2022/11/01 04:22:28;;;;;;;8.10;7.00;;;;;;;;;;105493;1298;22471;-28
2022/11/01 04:25:00;;;;;;;7.40;6.20;;;;;;;;;;105465;1292;22523;-28
2022/11/01 04:27:32;;;;;;;7.50;6.10;;;;;;;;;;105509;1291;22472;-28
2022/11/01 04:30:08;;;;;;;7.70;6.20;;;;;;;;;;105525;1291;23850;-28
2022/11/01 04:32:44;;;;;;;7.50;6.40;;;;;;;;;;105516;1292;24251;-28
2022/11/01 04:35:16;;;;;;;8.30;6.50;;;;;;;;;;105511;1291;25265;-28
2022/11/01 04:37:52;;;;;;;7.20;6.30;;;;;;;;;;105506;1286;24001;-28
2022/11/01 04:40:24;;;;;;;7.70;6.50;;;;;;;;;;105492;1292;22766;-28
2022/11/01 04:42:57;;;;;;;7.10;6.30;;;;;;;;;;105531;1301;25209;-28
2022/11/01 04:45:29;;;;;;;7.60;6.40;;;;;;;;;;105467;1285;22413;-28
2022/11/01 04:48:12;;;;;;;8.00;6.30;;;;;;;;;;105487;1297;24248;-28
2022/11/01 04:50:44;;;;;;;7.70;6.40;;;;;;;;;;105500;1292;22515;-28
2022/11/01 04:53:17;;;;;;;7.80;6.30;;;;;;;;;;105496;1297;22478;-28
2022/11/01 04:55:49;;;;;;;7.20;6.20;;;;;;;;;;105471;1291;25784;-28
2022/11/01 04:58:20;;;;;;;6.70;6.00;;;;;;;;;;105476;1284;22664;-28
2022/11/01 05:00:52;;;;;;;7.20;6.00;;;;;;;;;;105510;1285;22489;-28
2022/11/01 05:03:24;;;;;;;7.20;6.40;;;;;;;;;;105531;1300;22469;-28
2022/11/01 05:05:58;;;;;;;7.00;6.10;;;;;;;;;;105467;1298;22478;-28
2022/11/01 05:08:30;;;;;;;7.50;6.40;;;;;;;;;;105514;1285;23150;-28
2022/11/01 05:11:02;;;;;;;7.70;6.30;;;;;;;;;;105489;1297;22481;-28
2022/11/01 05:13:34;;;;;;;7.50;6.30;;;;;;;;;;105493;1290;22553;-28
2022/11/01 05:16:07;;;;;;;7.40;6.40;;;;;;;;;;105467;1292;22465;-28
2022/11/01 05:18:39;;;;;;;;;;;;;;;;;;105527;1292;22859;-28
2022/11/01 05:21:11;;;;;;;8.00;6.40;;;;;;;;;;105503;1292;23810;-28
2022/11/01 05:23:43;;;;;;;7.20;5.80;;;;;;;;;;105492;1297;22492;-28
2022/11/01 05:26:15;;;;;;;7.20;6.20;;;;;;;;;;105472;1297;25255;-28
2022/11/01 05:28:46;;;;;;;7.50;6.50;;;;;;;;;;105503;1276;22463;-28
2022/11/01 05:31:18;;;;;;;8.20;6.80;;;;;;;;;;105506;1300;22487;-28
2022/11/01 05:33:50;;;;;;;7.70;6.30;;;;;;;;;;105494;1298;22476;-28
2022/11/01 05:36:22;;;;;;;7.70;6.30;;;;;;;;;;105425;1285;22496;-28
2022/11/01 05:38:57;;;;;;;8.20;6.70;;;;;;;;;;105525;1292;22690;-28
2022/11/01 05:41:29;;;;;;;7.70;6.50;;;;;;;;;;105504;1298;22644;-28
2022/11/01 05:44:00;;;;;;;7.80;6.60;;;;;;;;;;105502;1291;23863;-28
2022/11/01 05:46:33;;;;;;;7.20;6.00;;;;;;;;;;105437;1298;21695;-28
2022/11/01 05:49:05;;;;;;;7.50;6.60;;;;;;;;;;105492;1292;22416;-28
2022/11/01 05:51:38;;;;;;;7.30;6.40;;;;;;;;;;105495;1298;22478;-28
2022/11/01 05:54:10;;;;;;;7.60;6.10;;;;;;;;;;105527;1287;22492;-28
2022/11/01 05:56:45;;;;;;;7.10;5.90;;;;;;;;;;105481;1285;22489;-28
2022/11/01 05:59:17;;;;;;;6.90;5.80;;;;;;;;;;105499;1297;23788;-28
2022/11/01 06:01:49;;;;;;;7.50;6.10;;;;;;;;;;105523;1292;22410;-28
2022/11/01 06:04:23;;;;;;;7.20;6.40;;;;;;;;;;105489;1298;22495;-28
2022/11/01 06:06:55;;;;;;;8.10;6.00;;;;;;;;;;105453;1298;23901;-28
2022/11/01 06:09:27;;;;;;;6.90;5.60;;;;;;;;;;105486;1298;25345;-28
2022/11/01 06:11:59;;;;;;;7.10;6.00;;;;;;;;;;105494;1291;22446;-28
2022/11/01 06:14:31;;;;;;;6.80;5.70;;;;;;;;;;105530;1291;22475;-28
2022/11/01 06:17:04;;;;;;;7.00;5.90;;;;;;;;;;105464;1291;22474;-28
2022/11/01 06:19:36;;;;;;;7.30;6.00;;;;;;;;;;105527;1291;25382;-28
2022/11/01 06:22:07;;;;;;;7.00;6.00;;;;;;;;;;105513;1292;22571;-28
2022/11/01 06:24:40;;;;;;;7.00;6.20;;;;;;;;;;105507;1287;22484;-29
2022/11/01 06:27:12;;;;;;;7.30;6.00;;;;;;;;;;105453;1281;22702;-29
2022/11/01 06:29:44;;;;;;;7.60;5.90;;;;;;;;;;105497;1290;22536;-29
2022/11/01 06:32:16;;;;;;;6.80;5.90;;;;;;;;;;105504;1298;22511;-29
2022/11/01 06:34:48;;;;;;;7.10;6.00;;;;;;;;;;105463;1297;22465;-29
2022/11/01 06:37:20;;;;;;;6.90;5.70;;;;;;;;;;105451;1291;22410;-29
2022/11/01 06:39:52;;;;;;;6.90;5.70;;;;;;;;;;105503;1289;22489;-29
2022/11/01 06:42:24;;;;;;;6.60;5.90;;;;;;;;;;105503;1292;22465;-29
2022/11/01 06:44:56;;;;;;;7.20;6.00;;;;;;;;;;105471;1291;22476;-29
2022/11/01 06:47:28;;;;;;;6.80;6.00;;;;;;;;;;105484;1285;22485;-29
2022/11/01 06:50:00;;;;;;;7.00;6.30;;;;;;;;;;105499;1287;22615;-29
2022/11/01 06:52:32;;;;;;;7.10;6.10;;;;;;;;;;105493;1290;22432;-29
2022/11/01 06:55:09;;;;;;;6.80;6.10;;;;;;;;;;105500;1299;25813;-29
2022/11/01 06:57:41;;;;;;;7.00;6.00;;;;;;;;;;105442;1284;25451;-29
2022/11/01 07:00:18;;;;;;;7.10;5.80;;;;;;;;;;105530;1297;22457;-31
2022/11/01 07:03:00;;;;;;;7.20;5.60;;;;;;;;;;105483;1289;22462;-31
2022/11/01 07:05:36;;;;;;;8.50;6.10;;;;;;;;;;105506;1300;22525;-30
2022/11/01 07:08:13;;;;;;;6.90;6.10;;;;;;;;;;105458;1302;22553;-30
2022/11/01 07:10:45;;;;;;;6.80;6.00;;;;;;;;;;105499;1289;22476;-31
2022/11/01 07:13:18;;;;;;;6.80;5.90;;;;;;;;;;105519;1294;22543;-29
2022/11/01 07:15:53;;;;;;;7.10;5.90;;;;;;;;;;105488;1289;22464;-29
2022/11/01 07:18:25;;;;;;;6.80;6.10;;;;;;;;;;105483;1298;22481;-29
2022/11/01 07:21:02;;;;;;;6.80;5.90;;;;;;;;;;105512;1285;22832;-29
2022/11/01 07:23:35;;;;;;;6.60;5.80;;;;;;;;;;105514;1292;23686;-30
2022/11/01 07:26:08;;;;;;;6.90;6.20;;;;;;;;;;105545;1297;22493;-31
2022/11/01 07:28:40;;;;;;;7.00;6.00;;;;;;;;;;105467;1297;22521;-29
2022/11/01 07:31:12;;;;;;;6.90;6.00;;;;;;;;;;105524;1298;22475;-29
2022/11/01 07:33:45;;;;;;;7.80;6.10;;;;;;;;;;105560;1298;22476;-31
2022/11/01 07:36:18;;;;;;;6.80;5.90;;;;;;;;;;105445;1298;23657;-31
2022/11/01 07:38:48;;;;;;;;;;;;;;;;;;105422;1291;23788;-31
2022/11/01 07:41:21;;;;;;;6.90;5.60;;;;;;;;;;105440;1285;23093;-31
2022/11/01 07:43:54;;;;;;;6.80;5.90;;;;;;;;;;105467;1291;22507;-31
2022/11/01 07:46:26;;;;;;;7.60;6.20;;;;;;;;;;105448;1298;22481;-31
2022/11/01 07:49:01;;;;;;;7.10;6.00;;;;;;;;;;105433;1292;23827;-31
2022/11/01 07:51:33;;;;;;;7.70;6.20;;;;;;;;;;105444;1299;25189;-31
2022/11/01 07:54:05;;;;;;;7.10;6.00;;;;;;;;;;105426;1291;22477;-31
2022/11/01 07:56:39;;;;;;;7.40;6.50;;;;;;;;;;105448;1294;22480;-31
2022/11/01 07:59:14;;;;;;;8.00;6.00;;;;;;;;;;105444;1300;22463;-31
2022/11/01 08:01:47;;;;;;;6.80;5.90;;;;;;;;;;105397;1288;22528;-29
2022/11/01 08:04:19;;;;;;;7.00;6.20;;;;;;;;;;105398;1284;22489;-29
2022/11/01 08:06:51;;;;;;;8.20;6.40;;;;;;;;;;105381;1299;22492;-29
2022/11/01 08:09:24;;;;;;;7.20;6.10;;;;;;;;;;105354;1301;24550;-29
2022/11/01 08:11:58;;;;;;;7.30;6.30;;;;;;;;;;105408;1291;22465;-29
2022/11/01 08:14:30;;;;;;;7.10;6.00;;;;;;;;;;105419;1293;23746;-29
2022/11/01 08:17:04;;;;;;;8.00;6.50;;;;;;;;;;105388;1298;22485;-29
2022/11/01 08:19:36;;;;;;;7.60;6.50;;;;;;;;;;105369;1285;22621;-29
2022/11/01 08:22:08;;;;;;;8.30;6.70;;;;;;;;;;105404;1300;22520;-29
2022/11/01 08:24:40;;;;;;;7.70;6.70;;;;;;;;;;105379;1298;22966;-29
2022/11/01 08:27:12;;;;;;;7.80;6.70;;;;;;;;;;105389;1285;23955;-29
2022/11/01 08:29:44;;;;;;;8.20;6.40;;;;;;;;;;105348;1276;22570;-29
2022/11/01 08:32:22;;;;;;;7.30;6.50;;;;;;;;;;105397;1298;22538;-29
2022/11/01 08:34:54;;;;;;;8.30;6.90;;;;;;;;;;105382;1285;22500;-29
2022/11/01 08:37:26;;;;;;;7.80;6.80;;;;;;;;;;105392;1291;22492;-29
2022/11/01 08:40:01;;;;;;;7.70;6.50;;;;;;;;;;105332;1299;22480;-29
2022/11/01 08:42:37;;;;;;;7.60;6.80;;;;;;;;;;105393;1301;25384;-29
2022/11/01 08:45:14;;;;;;;7.90;6.90;;;;;;;;;;105393;1292;23828;-29
2022/11/01 08:47:49;;;;;;;8.60;6.50;;;;;;;;;;105377;1284;23854;-29
2022/11/01 08:50:21;;;;;;;8.00;6.50;;;;;;;;;;105369;1304;22477;-29
2022/11/01 08:52:52;;;;;;;9.50;7.60;;;;;;;;;;105374;1291;25446;-29
2022/11/01 08:55:25;;;;;;;8.00;6.80;;;;;;;;;;105386;1295;22524;-29
2022/11/01 08:57:59;;;;;;;8.40;7.30;;;;;;;;;;105384;1291;22477;-29
2022/11/01 09:00:37;;;;;;;8.40;7.00;;;;;;;;;;105344;1281;22484;-29
2022/11/01 09:03:09;;;;;;;8.50;7.10;;;;;;;;;;105400;1291;24225;-29
2022/11/01 09:05:41;;;;;;;8.60;7.30;;;;;;;;;;105416;1297;22488;-29
2022/11/01 09:08:13;;;;;;;9.10;7.00;;;;;;;;;;105379;1298;22518;-29
2022/11/01 09:10:45;;;;;;;9.20;7.80;;;;;;;;;;105369;1300;22609;-29
2022/11/01 09:13:19;;;;;;;10.70;8.20;;;;;;;;;;105378;1285;22427;-28
2022/11/01 09:15:51;;;;;;;11.10;9.10;;;;;;;;;;105404;1285;22484;-28
2022/11/01 09:18:24;;;;;;;11.30;8.30;;;;;;;;;;105425;1301;22472;-28
2022/11/01 09:21:00;;;;;;;14.10;10.50;;;;;;;;;;105332;1291;22719;-28
2022/11/01 09:23:31;;;;;;;14.30;10.50;;;;;;;;;;105432;1298;22472;-28
2022/11/01 09:26:11;;;;;;;12.80;10.00;;;;;;;;;;105405;1296;25240;-31
2022/11/01 09:28:46;;;;;;;12.50;10.10;;;;;;;;;;105427;1300;22550;-28
2022/11/01 09:31:18;;;;;;;15.30;11.50;;;;;;;;;;105392;1298;22479;-28
2022/11/01 09:33:53;;;;;;;15.30;11.10;;;;;;;;;;105364;1300;22482;-28
2022/11/01 09:36:27;;;;;;;15.70;10.00;;;;;;;;;;105381;1285;22468;-28
2022/11/01 09:39:00;;;;;;;14.30;10.70;;;;;;;;;;105408;1298;22482;-28
2022/11/01 09:41:41;;;;;;;14.40;12.30;;;;;;;;;;105526;1292;22480;-28
2022/11/01 09:44:20;;;;;;;17.00;12.90;;;;;;;;;;105401;1298;23555;-31
2022/11/01 09:46:58;;;;;;;15.10;11.60;;;;;;;;;;105356;1286;22709;-31
2022/11/01 09:49:33;;;;;;;15.10;11.70;;;;;;;;;;105369;1295;22657;-29
2022/11/01 09:52:07;;;;;;;15.90;11.40;;;;;;;;;;105381;1300;22477;-29
2022/11/01 09:54:39;;;;;;;14.40;11.10;;;;;;;;;;105405;1291;22455;-30
2022/11/01 09:57:25;;;;;;;16.10;11.40;;;;;;;;;;105268;1284;22438;-29
2022/11/01 10:00:12;;;;;;;17.00;12.00;;;;;;;;;;105226;1284;22498;-28
2022/11/01 10:03:23;;;;;;;16.00;12.30;;;;;;;;;;105285;1299;22493;-29
2022/11/01 10:06:05;;;;;;;18.70;13.80;;;;;;;;;;105261;1287;22474;-28
2022/11/01 10:08:51;;;;;;;18.60;14.80;;;;;;;;;;105317;1300;22475;-28
2022/11/01 10:12:07;;;;;;;20.50;16.10;;;;;;;;;;105307;1294;22498;-30
2022/11/01 10:14:57;;;;;;;19.80;15.00;;;;;;;;;;105406;1300;22409;-30
2022/11/01 10:17:48;;;;;;;19.90;15.30;;;;;;;;;;105364;1292;22475;-29
2022/11/01 10:20:22;;;;;;;17.40;13.50;;;;;;;;;;105330;1298;22509;-30
2022/11/01 10:22:56;;;;;;;15.90;13.20;;;;;;;;;;105407;1298;22520;-29
2022/11/01 10:25:33;;;;;;;14.50;12.40;;;;;;;;;;105399;1288;22527;-29
2022/11/01 10:28:18;;;;;;;14.60;12.90;;;;;;;;;;105407;1300;22593;-29
2022/11/01 10:30:57;;;;;;;18.00;13.30;;;;;;;;;;105383;1298;24238;-29
2022/11/01 10:33:35;;;;;;;15.70;12.70;;;;;;;;;;105404;1291;22599;-29
2022/11/01 10:36:16;;;;;;;14.70;13.00;;;;;;;;;;105374;1290;25356;-30
2022/11/01 10:38:53;;;;;;;15.80;12.50;;;;;;;;;;105395;1304;22511;-29
2022/11/01 10:41:31;;;;;;;14.80;12.90;;;;;;;;;;105346;1297;24294;-29
2022/11/01 10:44:07;;;;;;;13.90;12.00;;;;;;;;;;105371;1291;22475;-29
2022/11/01 10:46:47;;;;;;;16.90;12.70;;;;;;;;;;105375;1298;25380;-29
2022/11/01 10:49:26;;;;;;;14.00;11.90;;;;;;;;;;105321;1290;22464;-29
2022/11/01 10:52:05;;;;;;;15.90;13.30;;;;;;;;;;105321;1292;22489;-29
2022/11/01 10:54:41;;;;;;;13.80;11.50;;;;;;;;;;105390;1290;22488;-29
2022/11/01 10:57:22;;;;;;;15.80;12.40;;;;;;;;;;105402;1297;23777;-29
2022/11/01 10:59:56;;;;;;;15.10;12.70;;;;;;;;;;105372;1299;22702;-29
2022/11/01 11:02:34;;;;;;;14.00;12.20;;;;;;;;;;105370;1301;25415;-29
2022/11/01 11:05:07;;;;;;;15.00;12.60;;;;;;;;;;105377;1296;25347;-29
2022/11/01 11:07:39;;;;;;;15.00;12.20;;;;;;;;;;105324;1292;22495;-29
2022/11/01 11:10:21;;;;;;;14.40;12.40;;;;;;;;;;105392;1292;22473;-29
2022/11/01 11:12:57;;;;;;;14.00;12.40;;;;;;;;;;105380;1300;22443;-29
2022/11/01 11:15:51;;;;;;;14.60;12.00;;;;;;;;;;105409;1292;22524;-29
2022/11/01 11:18:29;;;;;;;;;;;;;;;;;;105418;1286;22641;-29
2022/11/01 11:21:05;;;;;;;13.50;11.10;;;;;;;;;;105384;1291;23794;-29
2022/11/01 11:23:43;;;;;;;14.20;11.70;;;;;;;;;;105357;1300;23936;-29
2022/11/01 11:26:19;;;;;;;12.80;11.40;;;;;;;;;;105412;1292;23566;-29
2022/11/01 11:28:56;;;;;;;13.80;11.20;;;;;;;;;;105372;1292;23697;-29
2022/11/01 11:31:32;;;;;;;14.40;11.70;;;;;;;;;;105393;1301;25204;-29
2022/11/01 11:34:20;;;;;;;13.60;12.00;;;;;;;;;;105342;1292;25946;-29
2022/11/01 11:36:59;;;;;;;13.10;11.40;;;;;;;;;;105395;1292;22439;-30
2022/11/01 11:39:35;;;;;;;13.90;11.50;;;;;;;;;;105417;1300;22841;-29
2022/11/01 11:42:22;;;;;;;14.00;11.70;;;;;;;;;;105343;1292;23722;-30
2022/11/01 11:45:03;;;;;;;12.70;11.40;;;;;;;;;;105053;1298;426323;-29
2022/11/01 11:47:42;;;;;;;14.40;12.20;;;;;;;;;;105427;1298;22478;-29
2022/11/01 11:50:31;;;;;;;12.90;11.50;;;;;;;;;;105381;1292;22475;-31
2022/11/01 11:53:15;;;;;;;12.90;11.40;;;;;;;;;;105393;1293;22696;-30
2022/11/01 11:55:52;;;;;;;13.30;11.90;;;;;;;;;;105395;1293;22484;-30
2022/11/01 11:58:35;;;;;;;13.80;11.60;;;;;;;;;;105378;1304;22471;-30
2022/11/01 12:01:10;;;;;;;13.50;12.00;;;;;;;;;;105391;1295;24237;-30
2022/11/01 12:03:50;;;;;;;12.80;11.40;;;;;;;;;;105392;1281;22473;-30
2022/11/01 12:06:28;;;;;;;14.60;12.00;;;;;;;;;;105390;1297;22814;-30
2022/11/01 12:09:02;;;;;;;13.20;11.60;;;;;;;;;;105394;1298;22682;-31
2022/11/01 12:11:46;;;;;;;14.20;12.30;;;;;;;;;;105382;1285;22469;-31
2022/11/01 12:14:25;;;;;;;13.70;11.80;;;;;;;;;;105341;1292;22524;-31
2022/11/01 12:16:58;;;;;;;13.90;11.90;;;;;;;;;;105401;1297;22478;-31
2022/11/01 12:19:32;;;;;;;13.00;11.30;;;;;;;;;;105394;1298;22546;-30
2022/11/01 12:22:05;;;;;;;13.70;12.30;;;;;;;;;;105415;1301;22717;-31
2022/11/01 12:24:44;;;;;;;13.40;12.00;;;;;;;;;;105369;1303;22487;-31
2022/11/01 12:27:22;;;;;;;13.30;11.50;;;;;;;;;;105391;1293;22628;-30
2022/11/01 12:30:01;;;;;;;15.10;12.50;;;;;;;;;;105364;1285;22414;-30
2022/11/01 12:32:46;;;;;;;15.40;13.60;;;;;;;;;;105411;1304;22891;-30
2022/11/01 12:35:27;;;;;;;20.30;16.90;;;;;;;;;;105340;1304;24304;-30
2022/11/01 12:38:33;;;;;;;21.70;18.00;;;;;;;;;;105411;1298;23842;-30
2022/11/01 12:41:26;;;;;;;21.80;17.30;;;;;;;;;;105405;1286;22547;-30
2022/11/01 12:44:20;;;;;;;21.00;16.60;;;;;;;;;;105422;1294;22440;-30
2022/11/01 12:46:58;;;;;;;21.40;17.60;;;;;;;;;;105428;1290;22971;-30
2022/11/01 12:49:39;;;;;;;21.00;14.60;;;;;;;;;;105421;1285;22650;-30
2022/11/01 12:52:21;;;;;;;19.80;15.90;;;;;;;;;;105393;1297;22620;-30
2022/11/01 12:55:06;;;;;;;22.60;17.50;;;;;;;;;;105378;1282;22492;-30
2022/11/01 12:57:38;;;;;;;20.90;17.60;;;;;;;;;;105383;1288;22488;-30
2022/11/01 13:00:20;;;;;;;21.20;17.20;;;;;;;;;;105391;1293;22547;-30
2022/11/01 13:03:09;;;;;;;22.10;18.40;;;;;;;;;;105386;1292;22471;-30
2022/11/01 13:05:53;;;;;;;21.80;16.80;;;;;;;;;;105359;1284;22464;-30
2022/11/01 13:08:42;;;;;;;19.60;15.90;;;;;;;;;;105419;1304;22500;-30
2022/11/01 13:11:24;;;;;;;21.40;16.30;;;;;;;;;;105418;1291;23827;-30
2022/11/01 13:14:10;;;;;;;20.10;16.00;;;;;;;;;;105391;1287;22461;-30
2022/11/01 13:16:52;;;;;;;22.10;17.00;;;;;;;;;;105432;1290;22462;-30
2022/11/01 13:19:32;;;;;;;25.40;19.30;;;;;;;;;;105382;1300;22474;-30
2022/11/01 13:22:09;;;;;;;25.00;18.40;;;;;;;;;;105400;1278;22440;-30
2022/11/01 13:24:49;;;;;;;24.30;18.40;;;;;;;;;;105357;1298;22552;-30
2022/11/01 13:27:29;;;;;;;21.00;16.50;;;;;;;;;;105419;1307;22470;-30
2022/11/01 13:30:09;;;;;;;22.90;17.50;;;;;;;;;;105398;1294;22463;-30
2022/11/01 13:32:51;;;;;;;22.60;16.90;;;;;;;;;;105443;1301;22516;-30
2022/11/01 13:35:50;;;;;;;22.20;17.70;;;;;;;;;;105373;1291;22470;-30
2022/11/01 13:38:33;;;;;;;22.20;17.80;;;;;;;;;;105420;1297;22468;-30
2022/11/01 13:41:18;;;;;;;25.40;18.10;;;;;;;;;;105406;1292;21978;-30
2022/11/01 13:43:57;;;;;;;23.60;17.70;;;;;;;;;;105469;1292;22465;-31
2022/11/01 13:47:08;;;;;;;21.00;17.50;;;;;;;;;;105455;1290;22478;-31
2022/11/01 13:50:03;;;;;;;19.00;16.10;;;;;;;;;;105415;1298;22434;-28
2022/11/01 13:52:41;;;;;;;25.40;18.60;;;;;;;;;;105411;1300;22451;-28
2022/11/01 13:55:25;;;;;;;26.80;18.90;;;;;;;;;;105384;1297;22513;-28
2022/11/01 13:57:58;;;;;;;22.50;17.50;;;;;;;;;;105431;1303;22485;-28
2022/11/01 14:00:44;;;;;;;20.20;17.00;;;;;;;;;;105427;1297;22483;-28
2022/11/01 14:03:29;;;;;;;27.90;20.20;;;;;;;;;;105417;1288;22477;-28
2022/11/01 14:06:37;;;;;;;27.90;18.60;;;;;;;;;;105390;1293;23845;-28
2022/11/01 14:09:33;;;;;;;21.80;17.30;;;;;;;;;;105426;1295;22739;-28
2022/11/01 14:12:35;;;;;;;22.70;17.60;;;;;;;;;;105385;1291;22545;-28
2022/11/01 14:15:27;;;;;;;24.40;18.90;;;;;;;;;;105368;1291;22481;-28
2022/11/01 14:18:10;;;;;;;23.50;18.50;;;;;;;;;;105388;1301;22476;-28
2022/11/01 14:20:54;;;;;;;22.40;17.00;;;;;;;;;;105442;1300;22506;-28
2022/11/01 14:24:02;;;;;;;20.30;16.50;;;;;;;;;;105392;1297;22482;-28
2022/11/01 14:26:49;;;;;;;19.50;16.00;;;;;;;;;;105396;1292;22480;-30
2022/11/01 14:29:24;;;;;;;19.60;16.10;;;;;;;;;;105370;1304;22482;-30
2022/11/01 14:31:58;;;;;;;18.60;15.20;;;;;;;;;;105366;1289;23846;-30
2022/11/01 14:34:37;;;;;;;17.50;15.20;;;;;;;;;;105411;1300;22442;-30
2022/11/01 14:37:22;;;;;;;20.00;15.70;;;;;;;;;;105413;1292;22470;-30
2022/11/01 14:40:20;;;;;;;17.30;15.10;;;;;;;;;;105379;1298;22490;-30
2022/11/01 14:43:01;;;;;;;17.90;15.10;;;;;;;;;;105387;1290;22482;-30
2022/11/01 14:45:37;;;;;;;18.70;14.80;;;;;;;;;;105417;1298;22482;-30
2022/11/01 14:48:22;;;;;;;18.00;14.30;;;;;;;;;;105383;1292;22554;-30
2022/11/01 14:51:00;;;;;;;17.10;14.50;;;;;;;;;;105441;1298;22485;-30
2022/11/01 14:53:38;;;;;;;17.80;14.40;;;;;;;;;;105433;1297;22489;-31
2022/11/01 14:56:20;;;;;;;16.20;13.80;;;;;;;;;;105380;1298;22468;-30
2022/11/01 14:58:52;;;;;;;16.30;14.50;;;;;;;;;;105443;1288;22478;-31
2022/11/01 15:01:25;;;;;;;16.00;14.20;;;;;;;;;;105374;1285;22406;-31
2022/11/01 15:04:00;;;;;;;17.30;14.20;;;;;;;;;;105419;1299;22531;-30
2022/11/01 15:06:33;;;;;;;14.80;13.20;;;;;;;;;;105361;1304;22505;-30
2022/11/01 15:09:05;;;;;;;16.40;14.10;;;;;;;;;;105381;1295;23745;-30
2022/11/01 15:11:38;;;;;;;17.20;14.50;;;;;;;;;;105396;1293;21663;-30
2022/11/01 15:14:11;;;;;;;16.00;13.90;;;;;;;;;;105399;1305;23784;-31
2022/11/01 15:16:44;;;;;;;15.00;13.10;;;;;;;;;;105375;1289;25385;-30
2022/11/01 15:19:26;;;;;;;15.80;13.70;;;;;;;;;;105407;1299;25347;-30
2022/11/01 15:22:02;;;;;;;15.50;13.30;;;;;;;;;;105419;1299;25281;-30
2022/11/01 15:24:36;;;;;;;15.90;13.40;;;;;;;;;;105383;1297;22475;-31